createdAt,value
2018-03-27T00:01:59.386Z,101110.12
2018-03-27T00:04:25.322Z,101114.16
2018-03-27T00:06:51.330Z,101114.61
2018-03-27T00:09:17.329Z,101118.02
2018-03-27T00:11:43.303Z,101116.50
2018-03-27T00:14:09.311Z,101112.86
2018-03-27T00:16:35.302Z,101115.59
2018-03-27T00:19:01.241Z,101117.81
2018-03-27T00:21:27.181Z,101111.36
2018-03-27T00:23:53.126Z,101113.52
2018-03-27T00:26:19.078Z,101113.94
2018-03-27T00:28:45.054Z,101119.06
2018-03-27T00:31:10.989Z,101115.52
2018-03-27T00:33:36.951Z,101117.89
2018-03-27T00:36:02.903Z,101111.64
2018-03-27T00:38:28.837Z,101111.83
2018-03-27T00:40:54.778Z,101111.81
2018-03-27T00:43:20.718Z,101121.22
2018-03-27T00:45:46.682Z,101116.28
2018-03-27T00:48:12.633Z,101123.58
2018-03-27T00:50:38.592Z,101119.39
2018-03-27T00:53:04.605Z,101113.92
2018-03-27T00:55:30.665Z,101115.22
2018-03-27T00:57:56.605Z,101114.38
2018-03-27T01:00:22.571Z,101115.92
2018-03-27T01:02:48.509Z,101111.87
2018-03-27T01:05:14.477Z,101114.16
2018-03-27T01:07:40.424Z,101112.02
2018-03-27T01:10:06.369Z,101111.06
2018-03-27T01:12:32.304Z,101109.16
2018-03-27T01:14:58.365Z,101107.77
2018-03-27T01:17:24.332Z,101111.58
2018-03-27T01:19:50.277Z,101105.13
2018-03-27T01:22:16.253Z,101104.37
2018-03-27T01:24:42.197Z,101102.98
2018-03-27T01:27:08.153Z,101104.67
2018-03-27T01:29:34.104Z,101101.67
2018-03-27T01:32:00.047Z,101098.49
2018-03-27T01:34:26.027Z,101100.63
2018-03-27T01:36:51.981Z,101095.63
2018-03-27T01:39:17.924Z,101096.55
2018-03-27T01:41:43.889Z,101090.86
2018-03-27T01:44:09.836Z,101096.98
2018-03-27T01:46:35.790Z,101087.08
2018-03-27T01:49:01.739Z,101080.52
2018-03-27T01:51:27.686Z,101080.14
2018-03-27T01:53:53.638Z,101076.27
2018-03-27T01:56:19.707Z,101081.94
2018-03-27T01:58:45.657Z,101081.73
2018-03-27T02:01:11.601Z,101071.53
2018-03-27T02:03:37.586Z,101073.83
2018-03-27T02:06:03.524Z,101067.97
2018-03-27T02:08:29.469Z,101064.67
2018-03-27T02:10:55.521Z,101068.44
2018-03-27T02:13:21.479Z,101062.09
2018-03-27T02:15:47.438Z,101060.94
2018-03-27T02:18:13.433Z,101056.12
2018-03-27T02:20:39.392Z,101060.51
2018-03-27T02:23:05.350Z,101061.38
2018-03-27T02:25:31.335Z,101060.78
2018-03-27T02:27:57.281Z,101056.77
2018-03-27T02:30:23.218Z,101064.09
2018-03-27T02:32:49.235Z,101062.06
2018-03-27T02:35:15.194Z,101067.97
2018-03-27T02:37:41.155Z,101060.55
2018-03-27T02:40:07.110Z,101059.39
2018-03-27T02:42:33.113Z,101061.92
2018-03-27T02:44:59.065Z,101050.06
2018-03-27T02:47:25.012Z,101059.83
2018-03-27T02:49:51.007Z,101052.14
2018-03-27T02:52:16.947Z,101058.82
2018-03-27T02:54:42.905Z,101060.02
2018-03-27T02:57:08.851Z,101068.18
2018-03-27T02:59:34.822Z,101066.02
2018-03-27T03:02:00.769Z,101053.70
2018-03-27T03:04:26.720Z,101050.89
2018-03-27T03:06:52.709Z,101049.87
2018-03-27T03:09:18.665Z,101046.20
2018-03-27T03:11:44.606Z,101047.43
2018-03-27T03:14:10.541Z,101047.43
2018-03-27T03:16:36.485Z,101042.23
2018-03-27T03:19:02.453Z,101042.48
2018-03-27T03:21:28.392Z,101043.14
2018-03-27T03:23:54.326Z,101038.94
2018-03-27T03:26:20.290Z,101038.52
2018-03-27T03:28:46.221Z,101041.06
2018-03-27T03:31:12.174Z,101043.14
2018-03-27T03:33:38.146Z,101040.03
2018-03-27T03:36:04.081Z,101042.09
2018-03-27T03:38:30.046Z,101035.02
2018-03-27T03:40:55.990Z,101039.32
2018-03-27T03:43:21.985Z,101042.59
2018-03-27T03:45:47.930Z,101043.83
2018-03-27T03:48:13.866Z,101045.50
2018-03-27T03:50:39.817Z,101047.31
2018-03-27T03:53:05.765Z,101040.23
2018-03-27T03:55:31.723Z,101038.50
2018-03-27T03:57:57.653Z,101037.34
2018-03-27T04:00:23.599Z,101041.64
2018-03-27T04:02:49.543Z,101040.53
2018-03-27T04:05:15.473Z,101040.53
2018-03-27T04:07:41.414Z,101036.44
2018-03-27T04:10:07.417Z,101039.41
2018-03-27T04:12:33.396Z,101033.43
2018-03-27T04:14:59.355Z,101037.47
2018-03-27T04:17:25.298Z,101037.80
2018-03-27T04:19:51.295Z,101028.94
2018-03-27T04:22:17.218Z,101032.73
2018-03-27T04:24:43.169Z,101036.06
2018-03-27T04:27:09.126Z,101034.04
2018-03-27T04:29:35.061Z,101023.48
2018-03-27T04:32:01.006Z,101021.55
2018-03-27T04:34:26.946Z,101025.72
2018-03-27T04:36:52.889Z,101021.49
2018-03-27T04:39:18.861Z,101018.28
2018-03-27T04:41:44.790Z,101015.86
2018-03-27T04:44:10.742Z,101016.15
2018-03-27T04:46:36.758Z,101013.09
2018-03-27T04:49:02.709Z,101010.78
2018-03-27T04:51:28.652Z,101004.97
2018-03-27T04:53:54.674Z,101007.05
2018-03-27T04:56:20.630Z,101002.54
2018-03-27T04:58:46.570Z,101003.86
2018-03-27T05:01:12.654Z,101002.83
2018-03-27T05:03:38.597Z,100994.56
2018-03-27T05:06:04.549Z,100996.00
2018-03-27T05:08:30.489Z,100995.12
2018-03-27T05:10:56.429Z,100997.81
2018-03-27T05:13:22.384Z,100995.66
2018-03-27T05:15:48.355Z,100991.70
2018-03-27T05:18:14.303Z,100987.67
2018-03-27T05:20:40.245Z,100991.02
2018-03-27T05:23:06.197Z,100992.41
2018-03-27T05:25:32.166Z,100993.72
2018-03-27T05:27:58.113Z,100989.98
2018-03-27T05:30:24.065Z,100990.39
2018-03-27T05:32:50.012Z,100987.13
2018-03-27T05:35:15.997Z,100988.45
2018-03-27T05:37:42.054Z,100987.05
2018-03-27T05:40:08.001Z,100993.31
2018-03-27T05:42:33.956Z,100999.08
2018-03-27T05:44:59.893Z,100998.17
2018-03-27T05:47:25.841Z,100990.96
2018-03-27T05:49:51.781Z,100991.30
2018-03-27T05:52:17.737Z,100985.33
2018-03-27T05:54:43.686Z,100993.31
2018-03-27T05:57:09.797Z,100986.36
2018-03-27T05:59:35.737Z,100986.44
2018-03-27T06:02:01.722Z,100986.16
2018-03-27T06:04:27.634Z,100979.30
2018-03-27T06:06:53.602Z,100984.62
2018-03-27T06:09:19.545Z,100980.83
2018-03-27T06:11:45.502Z,100976.42
2018-03-27T06:14:11.441Z,100971.64
2018-03-27T06:16:37.500Z,100974.78
2018-03-27T06:19:03.558Z,100974.78
2018-03-27T06:21:29.542Z,100978.53
2018-03-27T06:23:55.573Z,100973.66
2018-03-27T06:26:21.530Z,100971.52
2018-03-27T06:28:47.525Z,100970.48
2018-03-27T06:31:13.571Z,100967.89
2018-03-27T06:33:39.593Z,100960.47
2018-03-27T06:36:05.549Z,100957.22
2018-03-27T06:38:31.506Z,100959.94
2018-03-27T06:40:57.485Z,100953.75
2018-03-27T06:43:23.453Z,100948.69
2018-03-27T06:45:49.485Z,100955.13
2018-03-27T06:48:15.420Z,100952.14
2018-03-27T06:50:41.365Z,100961.25
2018-03-27T06:53:07.338Z,100965.47
2018-03-27T06:55:33.289Z,100966.86
2018-03-27T06:57:59.370Z,100964.84
2018-03-27T07:00:25.326Z,100963.81
2018-03-27T07:02:51.262Z,100959.03
2018-03-27T07:05:17.299Z,100963.73
2018-03-27T07:07:43.307Z,100957.70
2018-03-27T07:10:09.232Z,100966.11
2018-03-27T07:12:35.234Z,100961.71
2018-03-27T07:15:01.206Z,100958.66
2018-03-27T07:17:27.110Z,100953.88
2018-03-27T07:19:53.078Z,100951.32
2018-03-27T07:22:19.011Z,100943.95
2018-03-27T07:24:44.963Z,100940.20
2018-03-27T07:27:10.920Z,100932.86
2018-03-27T07:29:36.869Z,100933.14
2018-03-27T07:32:02.821Z,100925.84
2018-03-27T07:34:28.774Z,100924.66
2018-03-27T07:36:54.714Z,100930.34
2018-03-27T07:39:20.660Z,100932.23
2018-03-27T07:41:46.629Z,100928.08
2018-03-27T07:44:12.574Z,100920.00
2018-03-27T07:46:38.535Z,100916.45
2018-03-27T07:49:04.546Z,100907.38
2018-03-27T07:51:30.506Z,100904.17
2018-03-27T07:53:56.454Z,100895.30
2018-03-27T07:56:22.411Z,100899.92
2018-03-27T07:58:48.372Z,100897.66
2018-03-27T08:01:14.313Z,100897.03
2018-03-27T08:03:40.270Z,100891.69
2018-03-27T08:06:06.214Z,100892.18
2018-03-27T08:08:32.158Z,100895.15
2018-03-27T08:10:58.127Z,100890.86
2018-03-27T08:13:24.080Z,100877.09
2018-03-27T08:15:50.018Z,100879.61
2018-03-27T08:18:15.990Z,100873.72
2018-03-27T08:20:41.922Z,100868.97
2018-03-27T08:23:08.022Z,100868.07
2018-03-27T08:25:33.962Z,100863.91
2018-03-27T08:27:59.908Z,100861.02
2018-03-27T08:30:25.948Z,100850.92
2018-03-27T08:32:51.891Z,100854.42
2018-03-27T08:35:17.849Z,100851.83
2018-03-27T08:37:43.861Z,100848.28
2018-03-27T08:40:09.829Z,100846.84
2018-03-27T08:42:35.779Z,100844.41
2018-03-27T08:45:01.775Z,100836.41
2018-03-27T08:47:27.738Z,100838.30
2018-03-27T08:49:53.686Z,100834.34
2018-03-27T08:52:19.669Z,100833.02
2018-03-27T08:54:45.658Z,100818.45
2018-03-27T08:57:11.575Z,100816.70
2018-03-27T08:59:37.534Z,100819.75
2018-03-27T09:02:03.465Z,100822.39
2018-03-27T09:04:29.439Z,100813.32
2018-03-27T09:06:55.528Z,100810.47
2018-03-27T09:09:21.565Z,100813.16
2018-03-27T09:11:47.504Z,100812.39
2018-03-27T09:14:13.438Z,100804.73
2018-03-27T09:16:39.401Z,100802.95
2018-03-27T09:19:05.366Z,100796.84
2018-03-27T09:21:31.338Z,100796.09
2018-03-27T09:23:57.319Z,100799.14
2018-03-27T09:26:23.305Z,100793.53
2018-03-27T09:28:49.278Z,100796.00
2018-03-27T09:31:15.246Z,100796.63
2018-03-27T09:33:41.191Z,100790.88
2018-03-27T09:36:07.208Z,100793.23
2018-03-27T09:38:33.137Z,100791.23
2018-03-27T09:40:59.090Z,100783.39
2018-03-27T09:43:25.048Z,100781.28
2018-03-27T09:45:51.088Z,100777.05
2018-03-27T09:48:17.069Z,100778.77
2018-03-27T09:50:43.009Z,100768.72
2018-03-27T09:53:08.954Z,100763.20
2018-03-27T09:55:34.898Z,100756.11
2018-03-27T09:58:00.870Z,100753.20
2018-03-27T10:00:27.053Z,100749.42
2018-03-27T10:02:53.061Z,100747.65
2018-03-27T10:05:19.096Z,100740.18
2018-03-27T10:07:45.034Z,100742.91
2018-03-27T10:10:10.934Z,100724.45
2018-03-27T10:12:37.901Z,100730.05
2018-03-27T10:15:03.988Z,100723.53
2018-03-27T10:17:29.947Z,100722.63
2018-03-27T10:19:55.898Z,100720.07
2018-03-27T10:22:21.898Z,100717.84
2018-03-27T10:24:47.866Z,100714.09
2018-03-27T10:27:13.825Z,100706.27
2018-03-27T10:29:39.794Z,100707.64
2018-03-27T10:32:05.786Z,100703.27
2018-03-27T10:34:31.774Z,100696.56
2018-03-27T10:36:57.721Z,100691.53
2018-03-27T10:39:23.718Z,100689.73
2018-03-27T10:41:49.740Z,100673.91
2018-03-27T10:44:15.682Z,100670.16
2018-03-27T10:46:41.646Z,100674.53
2018-03-27T10:49:07.581Z,100656.48
2018-03-27T10:51:33.550Z,100657.71
2018-03-27T10:53:59.511Z,100647.57
2018-03-27T10:56:25.459Z,100644.77
2018-03-27T10:58:51.462Z,100630.78
2018-03-27T11:01:17.417Z,100620.50
2018-03-27T11:03:43.369Z,100619.24
2018-03-27T11:06:09.322Z,100625.15
2018-03-27T11:08:35.295Z,100614.19
2018-03-27T11:11:01.235Z,100604.92
2018-03-27T11:13:27.174Z,100601.41
2018-03-27T11:15:53.129Z,100605.39
2018-03-27T11:18:19.089Z,100600.70
2018-03-27T11:20:45.041Z,100594.02
2018-03-27T11:23:10.974Z,100594.66
2018-03-27T11:25:36.913Z,100595.25
2018-03-27T11:28:02.874Z,100604.24
2018-03-27T11:30:28.826Z,100585.50
2018-03-27T11:32:54.805Z,100579.73
2018-03-27T11:35:20.739Z,100580.86
2018-03-27T11:37:46.766Z,100569.31
2018-03-27T11:40:12.730Z,100567.13
2018-03-27T11:42:38.669Z,100558.63
2018-03-27T11:45:04.637Z,100556.63
2018-03-27T11:47:30.597Z,100547.48
2018-03-27T11:49:56.542Z,100540.98
2018-03-27T11:52:22.517Z,100529.75
2018-03-27T11:54:48.461Z,100523.76
2018-03-27T11:57:14.405Z,100514.94
2018-03-27T11:59:40.379Z,100510.81
2018-03-27T12:02:06.351Z,100515.71
2018-03-27T12:04:32.294Z,100509.34
2018-03-27T12:06:58.238Z,100495.88
2018-03-27T12:09:24.175Z,100497.42
2018-03-27T12:11:50.125Z,100489.50
2018-03-27T12:14:16.071Z,100486.55
2018-03-27T12:16:42.026Z,100483.41
2018-03-27T12:19:07.978Z,100478.98
2018-03-27T12:21:33.922Z,100482.18
2018-03-27T12:23:59.883Z,100474.95
2018-03-27T12:26:25.826Z,100473.77
2018-03-27T12:28:51.790Z,100469.81
2018-03-27T12:31:17.745Z,100463.77
2018-03-27T12:33:43.752Z,100469.90
2018-03-27T12:36:09.660Z,100462.89
2018-03-27T12:38:35.621Z,100459.70
2018-03-27T12:41:01.574Z,100457.20
2018-03-27T12:43:27.514Z,100452.05
2018-03-27T12:45:53.486Z,100441.26
2018-03-27T12:48:19.425Z,100446.75
2018-03-27T12:50:45.493Z,100436.22
2018-03-27T12:53:11.481Z,100434.08
2018-03-27T12:55:37.426Z,100431.70
2018-03-27T13:00:35.504Z,100424.57
2018-03-27T13:03:01.437Z,100420.56
2018-03-27T13:05:27.383Z,100421.11
2018-03-27T13:07:53.324Z,100416.25
2018-03-27T13:10:19.321Z,100418.39
2018-03-27T13:12:45.258Z,100429.39
2018-03-27T13:15:11.326Z,100427.53
2018-03-27T13:17:37.355Z,100422.75
2018-03-27T13:20:03.297Z,100427.39
2018-03-27T13:22:29.252Z,100432.44
2018-03-27T13:24:55.215Z,100430.08
2018-03-27T13:27:21.163Z,100427.35
2018-03-27T13:29:47.181Z,100421.89
2018-03-27T13:32:13.292Z,100426.22
2018-03-27T13:34:39.197Z,100422.57
2018-03-27T13:37:05.154Z,100425.80
2018-03-27T13:39:31.206Z,100422.20
2018-03-27T13:41:57.245Z,100416.84
2018-03-27T13:44:23.446Z,100415.11
2018-03-27T13:46:49.413Z,100403.43
2018-03-27T13:49:15.409Z,100397.01
2018-03-27T13:51:41.342Z,100398.70
2018-03-27T13:54:07.360Z,100394.46
2018-03-27T13:56:33.487Z,100387.60
2018-03-27T13:58:59.428Z,100385.14
2018-03-27T14:01:25.361Z,100383.19
2018-03-27T14:03:51.394Z,100384.23
2018-03-27T14:06:17.353Z,100383.83
2018-03-27T14:08:43.316Z,100380.27
2018-03-27T14:11:09.266Z,100374.91
2018-03-27T14:13:35.305Z,100373.64
2018-03-27T14:16:01.255Z,100368.23
2018-03-27T14:18:27.228Z,100364.45
2018-03-27T14:20:53.179Z,100362.55
2018-03-27T14:23:19.135Z,100361.64
2018-03-27T14:25:45.094Z,100359.50
2018-03-27T14:28:11.158Z,100358.81
2018-03-27T14:30:37.154Z,100352.77
2018-03-27T14:33:03.125Z,100351.17
2018-03-27T14:35:29.101Z,100354.77
2018-03-27T14:37:55.058Z,100355.44
2018-03-27T14:40:21.032Z,100354.53
2018-03-27T14:42:46.973Z,100345.95
2018-03-27T14:45:12.911Z,100347.03
2018-03-27T14:47:38.878Z,100336.08
2018-03-27T14:50:04.869Z,100334.02
2018-03-27T14:52:30.822Z,100330.52
2018-03-27T14:54:56.786Z,100323.30
2018-03-27T14:57:22.821Z,100312.62
2018-03-27T14:59:48.755Z,100315.47
2018-03-27T15:02:14.715Z,100311.33
2018-03-27T15:04:40.673Z,100306.70
2018-03-27T15:07:06.649Z,100302.78
2018-03-27T15:09:32.616Z,100304.88
2018-03-27T15:11:58.553Z,100303.27
2018-03-27T15:14:24.525Z,100300.55
2018-03-27T15:16:50.453Z,100296.09
2018-03-27T15:19:16.419Z,100294.19
2018-03-27T15:21:42.475Z,100282.46
2018-03-27T15:24:08.445Z,100281.32
2018-03-27T15:26:34.389Z,100276.31
2018-03-27T15:29:00.344Z,100273.23
2018-03-27T15:31:26.290Z,100267.95
2018-03-27T15:33:52.257Z,100262.91
2018-03-27T15:36:18.214Z,100258.91
2018-03-27T15:38:44.198Z,100246.80
2018-03-27T15:41:10.185Z,100245.13
2018-03-27T15:43:36.149Z,100240.11
2018-03-27T15:46:02.155Z,100241.67
2018-03-27T15:48:28.093Z,100238.47
2018-03-27T15:50:54.034Z,100243.25
2018-03-27T15:53:20.054Z,100240.37
2018-03-27T15:55:46.064Z,100242.61
2018-03-27T15:58:12.040Z,100244.34
2018-03-27T16:00:38.008Z,100252.57
2018-03-27T16:03:03.965Z,100249.23
2018-03-27T16:05:29.982Z,100249.23
2018-03-27T16:07:55.944Z,100254.36
2018-03-27T16:10:21.879Z,100250.98
2018-03-27T16:12:47.819Z,100252.95
2018-03-27T16:15:13.782Z,100256.94
2018-03-27T16:17:39.747Z,100250.98
2018-03-27T16:20:05.690Z,100246.09
2018-03-27T16:22:31.698Z,100248.27
2018-03-27T16:24:57.638Z,100232.41
2018-03-27T16:27:23.579Z,100237.56
2018-03-27T16:29:49.602Z,100230.27
2018-03-27T16:32:15.541Z,100231.94
2018-03-27T16:34:41.537Z,100232.67
2018-03-27T16:37:07.478Z,100223.34
2018-03-27T16:39:33.426Z,100218.66
2018-03-27T16:41:59.365Z,100219.89
2018-03-27T16:44:25.318Z,100220.24
2018-03-27T16:46:51.333Z,100215.44
2018-03-27T16:49:17.296Z,100213.88
2018-03-27T16:51:43.250Z,100207.11
2018-03-27T16:54:09.210Z,100201.43
2018-03-27T16:56:35.153Z,100191.22
2018-03-27T16:59:01.147Z,100182.16
2018-03-27T17:01:27.107Z,100181.27
2018-03-27T17:03:53.071Z,100189.73
2018-03-27T17:06:19.031Z,100184.27
2018-03-27T17:08:45.093Z,100184.19
2018-03-27T17:11:11.045Z,100186.98
2018-03-27T17:13:37.006Z,100185.25
2018-03-27T17:16:02.966Z,100174.81
2018-03-27T17:18:28.890Z,100173.72
2018-03-27T17:20:54.875Z,100173.34
2018-03-27T17:23:20.850Z,100174.05
2018-03-27T17:25:46.870Z,100172.88
2018-03-27T17:28:12.908Z,100161.92
2018-03-27T17:30:38.988Z,100161.55
2018-03-27T17:33:04.955Z,100162.11
2018-03-27T17:35:30.907Z,100162.26
2018-03-27T17:37:56.858Z,100162.44
2018-03-27T17:40:22.821Z,100164.77
2018-03-27T17:42:48.779Z,100160.23
2018-03-27T17:45:14.711Z,100153.44
2018-03-27T17:47:40.667Z,100148.90
2018-03-27T17:50:06.632Z,100150.74
2018-03-27T17:52:32.565Z,100146.61
2018-03-27T17:54:58.528Z,100143.62
2018-03-27T17:57:24.486Z,100140.08
2018-03-27T17:59:50.443Z,100138.00
2018-03-27T18:02:16.418Z,100132.08
2018-03-27T18:04:42.402Z,100137.59
2018-03-27T18:07:08.359Z,100141.38
2018-03-27T18:09:34.318Z,100142.61
2018-03-27T18:12:00.280Z,100132.91
2018-03-27T18:14:26.242Z,100138.91
2018-03-27T18:16:52.210Z,100130.09
2018-03-27T18:19:18.234Z,100135.61
2018-03-27T18:21:44.210Z,100131.83
2018-03-27T18:24:10.160Z,100130.18
2018-03-27T18:26:36.106Z,100135.11
2018-03-27T18:29:02.101Z,100130.83
2018-03-27T18:31:28.098Z,100125.37
2018-03-27T18:33:54.122Z,100130.91
2018-03-27T18:36:20.069Z,100136.19
2018-03-27T18:38:46.102Z,100131.41
2018-03-27T18:41:12.086Z,100132.73
2018-03-27T18:43:38.050Z,100124.99
2018-03-27T18:46:03.996Z,100114.44
2018-03-27T18:48:29.950Z,100112.52
2018-03-27T18:50:55.965Z,100108.88
2018-03-27T18:53:21.907Z,100103.84
2018-03-27T18:55:47.867Z,100101.91
2018-03-27T18:58:13.810Z,100098.67
2018-03-27T19:00:39.855Z,100094.05
2018-03-27T19:03:05.811Z,100091.35
2018-03-27T19:05:31.750Z,100095.54
2018-03-27T19:07:57.826Z,100095.39
2018-03-27T19:10:23.833Z,100091.84
2018-03-27T19:12:49.954Z,100082.89
2018-03-27T19:15:15.885Z,100090.09
2018-03-27T19:17:41.869Z,100081.73
2018-03-27T19:20:07.887Z,100086.78
2018-03-27T19:22:33.874Z,100083.05
2018-03-27T19:24:59.812Z,100076.70
2018-03-27T19:27:25.765Z,100080.09
2018-03-27T19:29:51.733Z,100078.29
2018-03-27T19:32:17.713Z,100069.87
2018-03-27T19:34:43.678Z,100071.09
2018-03-27T19:37:09.697Z,100067.47
2018-03-27T19:39:35.658Z,100066.56
2018-03-27T19:42:01.640Z,100068.79
2018-03-27T19:44:27.589Z,100066.25
2018-03-27T19:46:53.662Z,100061.60
2018-03-27T19:49:19.713Z,100062.42
2018-03-27T19:51:45.676Z,100066.23
2018-03-27T19:54:11.610Z,100064.09
2018-03-27T19:56:37.573Z,100056.03
2018-03-27T19:59:03.739Z,100059.30
2018-03-27T20:01:29.650Z,100056.09
2018-03-27T20:03:55.693Z,100056.25
2018-03-27T20:06:21.644Z,100051.73
2018-03-27T20:08:47.598Z,100045.29
2018-03-27T20:11:13.597Z,100041.59
2018-03-27T20:13:39.507Z,100039.52
2018-03-27T20:16:05.430Z,100038.36
2018-03-27T20:18:31.366Z,100031.77
2018-03-27T20:20:57.361Z,100034.17
2018-03-27T20:23:23.301Z,100028.25
2018-03-27T20:25:49.261Z,100020.81
2018-03-27T20:28:15.218Z,100017.94
2018-03-27T20:30:41.272Z,100008.19
2018-03-27T20:33:07.248Z,100013.63
2018-03-27T20:35:33.195Z,100008.29
2018-03-27T20:37:59.162Z,100009.77
2018-03-27T20:40:25.106Z,100007.11
2018-03-27T20:42:51.058Z,100004.72
2018-03-27T20:45:17.021Z,100002.49
2018-03-27T20:47:42.962Z,99996.38
2018-03-27T20:50:08.936Z,100009.52
2018-03-27T20:52:34.881Z,100005.39
2018-03-27T20:55:00.837Z,100002.09
2018-03-27T20:57:26.810Z,99998.85
2018-03-27T20:59:52.754Z,99993.67
2018-03-27T21:02:18.701Z,99994.66
2018-03-27T21:04:44.669Z,99997.12
2018-03-27T21:07:10.635Z,99994.48
2018-03-27T21:09:36.570Z,99993.77
2018-03-27T21:12:02.521Z,99991.79
2018-03-27T21:14:28.711Z,99988.55
2018-03-27T21:16:54.682Z,99987.17
2018-03-27T21:19:20.625Z,99984.61
2018-03-27T21:21:46.577Z,99987.30
2018-03-27T21:24:12.518Z,99982.77
2018-03-27T21:26:38.466Z,99982.78
2018-03-27T21:29:04.443Z,99978.00
2018-03-27T21:31:30.371Z,99984.44
2018-03-27T21:33:56.331Z,99978.52
2018-03-27T21:36:22.311Z,99971.48
2018-03-27T21:38:48.245Z,99972.57
2018-03-27T21:41:14.339Z,99974.31
2018-03-27T21:43:40.285Z,99967.45
2018-03-27T21:46:06.241Z,99970.02
2018-03-27T21:48:32.267Z,99966.55
2018-03-27T21:50:58.225Z,99967.45
2018-03-27T21:53:24.189Z,99973.31
2018-03-27T21:55:50.139Z,99970.52
2018-03-27T21:58:16.114Z,99966.55
2018-03-27T22:00:42.058Z,99965.72
2018-03-27T22:03:08.018Z,99966.63
2018-03-27T22:05:33.997Z,99968.19
2018-03-27T22:07:59.971Z,99972.63
2018-03-27T22:10:25.954Z,99970.28
2018-03-27T22:12:51.929Z,99974.17
2018-03-27T22:15:17.914Z,99967.52
2018-03-27T22:17:43.854Z,99962.78
2018-03-27T22:20:09.803Z,99968.14
2018-03-27T22:22:35.749Z,99956.78
2018-03-27T22:25:01.689Z,99959.11
2018-03-27T22:27:27.634Z,99953.33
2018-03-27T22:29:53.577Z,99954.46
2018-03-27T22:32:19.542Z,99959.56
2018-03-27T22:34:45.571Z,99958.61
2018-03-27T22:37:11.631Z,99960.22
2018-03-27T22:39:37.698Z,99955.30
2018-03-27T22:42:03.707Z,99946.63
2018-03-27T22:44:29.661Z,99949.17
2018-03-27T22:46:55.598Z,99947.20
2018-03-27T22:49:21.609Z,99945.06
2018-03-27T22:51:47.542Z,99942.98
2018-03-27T22:54:13.493Z,99934.77
2018-03-27T22:56:39.431Z,99931.72
2018-03-27T22:59:05.391Z,99937.83
2018-03-27T23:01:31.327Z,99936.24
2018-03-27T23:03:57.283Z,99945.64
2018-03-27T23:06:23.218Z,99943.16
2018-03-27T23:08:49.169Z,99939.30
2018-03-27T23:11:15.109Z,99936.82
2018-03-27T23:13:41.069Z,99937.23
2018-03-27T23:16:07.015Z,99939.55
2018-03-27T23:18:32.953Z,99939.13
2018-03-27T23:20:58.893Z,99938.70
2018-03-27T23:23:24.834Z,99945.56
2018-03-27T23:25:50.781Z,99939.61
2018-03-27T23:28:16.729Z,99944.40
2018-03-27T23:30:42.665Z,99945.97
2018-03-27T23:33:08.597Z,99947.27
2018-03-27T23:35:34.533Z,99949.23
2018-03-27T23:38:00.473Z,99947.68
2018-03-27T23:40:26.435Z,99950.98
2018-03-27T23:42:52.413Z,99958.89
2018-03-27T23:45:18.377Z,99963.50
2018-03-27T23:47:44.322Z,99968.51
2018-03-27T23:50:10.269Z,99968.69
2018-03-27T23:52:36.209Z,99965.41
2018-03-27T23:55:02.205Z,99962.44
2018-03-27T23:57:28.161Z,99962.01
2018-03-27T23:59:54.128Z,99964.09
